sensor_id;sensor_type;location;lat;lon;timestamp;P1;P2;P0
78408;PMS5003;67697;50.750;-3.270;2023-02-21T00:01:53;17;17;
78408;PMS5003;67697;50.750;-3.270;2023-02-21T00:04:19;14;12;
78408;PMS5003;67697;50.750;-3.270;2023-02-21T00:06:45;19;19;
78408;PMS5003;67697;50.750;-3.270;2023-02-21T00:09:10;17;16;
78408;PMS5003;67697;50.750;-3.270;2023-02-21T00:11:39;17;17;
78408;PMS5003;67697;50.750;-3.270;2023-02-21T00:14:01;17;17;
78408;PMS5003;67697;50.750;-3.270;2023-02-21T00:16:26;18;16;
78408;PMS5003;67697;50.750;-3.270;2023-02-21T00:18:51;19;16;
78408;PMS5003;67697;50.750;-3.270;2023-02-21T00:21:17;17;17;
78408;PMS5003;67697;50.750;-3.270;2023-02-21T00:23:42;21;16;
78408;PMS5003;67697;50.750;-3.270;2023-02-21T00:26:08;17;16;
78408;PMS5003;67697;50.750;-3.270;2023-02-21T00:28:33;14;14;
78408;PMS5003;67697;50.750;-3.270;2023-02-21T00:30:59;20;17;
78408;PMS5003;67697;50.750;-3.270;2023-02-21T00:33:24;15;14;
78408;PMS5003;67697;50.750;-3.270;2023-02-21T00:35:50;17;17;
78408;PMS5003;67697;50.750;-3.270;2023-02-21T00:38:15;19;16;
78408;PMS5003;67697;50.750;-3.270;2023-02-21T00:40:41;20;15;
78408;PMS5003;67697;50.750;-3.270;2023-02-21T00:43:06;17;16;
78408;PMS5003;67697;50.750;-3.270;2023-02-21T00:45:32;21;17;
78408;PMS5003;67697;50.750;-3.270;2023-02-21T00:47:58;15;15;
78408;PMS5003;67697;50.750;-3.270;2023-02-21T00:50:24;18;18;
78408;PMS5003;67697;50.750;-3.270;2023-02-21T00:52:49;16;16;
78408;PMS5003;67697;50.750;-3.270;2023-02-21T00:55:14;24;22;
78408;PMS5003;67697;50.750;-3.270;2023-02-21T00:57:40;15;15;
78408;PMS5003;67697;50.750;-3.270;2023-02-21T01:00:06;21;19;
78408;PMS5003;67697;50.750;-3.270;2023-02-21T01:02:30;23;22;
78408;PMS5003;67697;50.750;-3.270;2023-02-21T01:04:56;28;24;
78408;PMS5003;67697;50.750;-3.270;2023-02-21T01:07:22;18;18;
78408;PMS5003;67697;50.750;-3.270;2023-02-21T01:09:47;15;14;
78408;PMS5003;67697;50.750;-3.270;2023-02-21T01:12:12;20;18;
78408;PMS5003;67697;50.750;-3.270;2023-02-21T01:14:37;19;19;
78408;PMS5003;67697;50.750;-3.270;2023-02-21T01:17:03;17;16;
78408;PMS5003;67697;50.750;-3.270;2023-02-21T01:19:29;26;23;
78408;PMS5003;67697;50.750;-3.270;2023-02-21T01:21:54;22;18;
78408;PMS5003;67697;50.750;-3.270;2023-02-21T01:24:19;20;19;
78408;PMS5003;67697;50.750;-3.270;2023-02-21T01:26:45;22;20;
78408;PMS5003;67697;50.750;-3.270;2023-02-21T01:29:11;17;17;
78408;PMS5003;67697;50.750;-3.270;2023-02-21T01:31:36;20;19;
78408;PMS5003;67697;50.750;-3.270;2023-02-21T01:34:02;21;18;
78408;PMS5003;67697;50.750;-3.270;2023-02-21T01:36:27;18;17;
78408;PMS5003;67697;50.750;-3.270;2023-02-21T01:38:52;18;17;
78408;PMS5003;67697;50.750;-3.270;2023-02-21T01:41:18;19;17;
78408;PMS5003;67697;50.750;-3.270;2023-02-21T01:46:10;21;21;
78408;PMS5003;67697;50.750;-3.270;2023-02-21T01:48:34;20;19;
78408;PMS5003;67697;50.750;-3.270;2023-02-21T01:51:00;20;19;
78408;PMS5003;67697;50.750;-3.270;2023-02-21T01:53:25;19;17;
78408;PMS5003;67697;50.750;-3.270;2023-02-21T01:55:51;20;19;
78408;PMS5003;67697;50.750;-3.270;2023-02-21T01:58:16;22;19;
78408;PMS5003;67697;50.750;-3.270;2023-02-21T02:00:42;24;21;
78408;PMS5003;67697;50.750;-3.270;2023-02-21T02:03:07;22;18;
78408;PMS5003;67697;50.750;-3.270;2023-02-21T02:05:32;15;15;
78408;PMS5003;67697;50.750;-3.270;2023-02-21T02:07:57;17;15;
78408;PMS5003;67697;50.750;-3.270;2023-02-21T02:10:23;17;16;
78408;PMS5003;67697;50.750;-3.270;2023-02-21T02:15:19;21;18;
78408;PMS5003;67697;50.750;-3.270;2023-02-21T02:17:42;17;17;
78408;PMS5003;67697;50.750;-3.270;2023-02-21T02:22:35;17;16;
78408;PMS5003;67697;50.750;-3.270;2023-02-21T02:24:57;26;23;
78408;PMS5003;67697;50.750;-3.270;2023-02-21T02:29:55;15;14;
78408;PMS5003;67697;50.750;-3.270;2023-02-21T02:34:41;15;14;
78408;PMS5003;67697;50.750;-3.270;2023-02-21T02:37:06;18;17;
78408;PMS5003;67697;50.750;-3.270;2023-02-21T02:39:31;17;15;
78408;PMS5003;67697;50.750;-3.270;2023-02-21T02:41:57;21;18;
78408;PMS5003;67697;50.750;-3.270;2023-02-21T02:44:20;21;17;
78408;PMS5003;67697;50.750;-3.270;2023-02-21T02:46:46;18;16;
78408;PMS5003;67697;50.750;-3.270;2023-02-21T02:49:12;18;16;
78408;PMS5003;67697;50.750;-3.270;2023-02-21T02:51:36;18;18;
78408;PMS5003;67697;50.750;-3.270;2023-02-21T02:54:01;19;16;
78408;PMS5003;67697;50.750;-3.270;2023-02-21T02:56:27;17;17;
78408;PMS5003;67697;50.750;-3.270;2023-02-21T02:58:53;15;13;
78408;PMS5003;67697;50.750;-3.270;2023-02-21T03:01:21;18;17;
78408;PMS5003;67697;50.750;-3.270;2023-02-21T03:03:47;18;16;
78408;PMS5003;67697;50.750;-3.270;2023-02-21T03:06:12;23;22;
78408;PMS5003;67697;50.750;-3.270;2023-02-21T03:08:36;15;15;
78408;PMS5003;67697;50.750;-3.270;2023-02-21T03:11:01;18;14;
78408;PMS5003;67697;50.750;-3.270;2023-02-21T03:13:27;16;15;
78408;PMS5003;67697;50.750;-3.270;2023-02-21T03:15:51;16;14;
78408;PMS5003;67697;50.750;-3.270;2023-02-21T03:18:17;15;15;
78408;PMS5003;67697;50.750;-3.270;2023-02-21T03:20:41;15;13;
78408;PMS5003;67697;50.750;-3.270;2023-02-21T03:23:07;15;13;
78408;PMS5003;67697;50.750;-3.270;2023-02-21T03:25:32;15;15;
78408;PMS5003;67697;50.750;-3.270;2023-02-21T03:27:57;15;15;
78408;PMS5003;67697;50.750;-3.270;2023-02-21T03:30:23;18;18;
78408;PMS5003;67697;50.750;-3.270;2023-02-21T03:32:48;18;18;
78408;PMS5003;67697;50.750;-3.270;2023-02-21T03:35:14;15;15;
78408;PMS5003;67697;50.750;-3.270;2023-02-21T03:37:40;17;16;
78408;PMS5003;67697;50.750;-3.270;2023-02-21T03:40:06;20;16;
78408;PMS5003;67697;50.750;-3.270;2023-02-21T03:42:30;15;15;
78408;PMS5003;67697;50.750;-3.270;2023-02-21T03:44:56;27;22;
78408;PMS5003;67697;50.750;-3.270;2023-02-21T03:47:21;13;11;
78408;PMS5003;67697;50.750;-3.270;2023-02-21T03:49:47;16;16;
78408;PMS5003;67697;50.750;-3.270;2023-02-21T03:52:12;15;15;
78408;PMS5003;67697;50.750;-3.270;2023-02-21T03:54:37;16;15;
78408;PMS5003;67697;50.750;-3.270;2023-02-21T03:57:03;19;17;
78408;PMS5003;67697;50.750;-3.270;2023-02-21T03:59:28;20;16;
78408;PMS5003;67697;50.750;-3.270;2023-02-21T04:01:54;16;16;
78408;PMS5003;67697;50.750;-3.270;2023-02-21T04:04:19;19;17;
78408;PMS5003;67697;50.750;-3.270;2023-02-21T04:06:45;17;15;
78408;PMS5003;67697;50.750;-3.270;2023-02-21T04:09:10;19;15;
78408;PMS5003;67697;50.750;-3.270;2023-02-21T04:11:35;13;11;
78408;PMS5003;67697;50.750;-3.270;2023-02-21T04:14:01;15;14;
78408;PMS5003;67697;50.750;-3.270;2023-02-21T04:16:26;18;18;
78408;PMS5003;67697;50.750;-3.270;2023-02-21T04:18:51;15;14;
78408;PMS5003;67697;50.750;-3.270;2023-02-21T04:21:17;19;16;
78408;PMS5003;67697;50.750;-3.270;2023-02-21T04:23:42;13;13;
78408;PMS5003;67697;50.750;-3.270;2023-02-21T04:26:07;17;16;
78408;PMS5003;67697;50.750;-3.270;2023-02-21T04:28:32;22;22;
78408;PMS5003;67697;50.750;-3.270;2023-02-21T04:30:58;21;17;
78408;PMS5003;67697;50.750;-3.270;2023-02-21T04:33:23;20;19;
78408;PMS5003;67697;50.750;-3.270;2023-02-21T04:35:49;22;20;
78408;PMS5003;67697;50.750;-3.270;2023-02-21T04:38:14;18;18;
78408;PMS5003;67697;50.750;-3.270;2023-02-21T04:40:40;19;18;
78408;PMS5003;67697;50.750;-3.270;2023-02-21T04:43:05;25;21;
78408;PMS5003;67697;50.750;-3.270;2023-02-21T04:45:30;25;21;
78408;PMS5003;67697;50.750;-3.270;2023-02-21T04:47:56;19;19;
78408;PMS5003;67697;50.750;-3.270;2023-02-21T04:50:21;17;16;
78408;PMS5003;67697;50.750;-3.270;2023-02-21T04:52:46;24;16;
78408;PMS5003;67697;50.750;-3.270;2023-02-21T04:55:12;23;21;
78408;PMS5003;67697;50.750;-3.270;2023-02-21T04:57:37;24;21;
78408;PMS5003;67697;50.750;-3.270;2023-02-21T05:00:03;28;26;
78408;PMS5003;67697;50.750;-3.270;2023-02-21T05:02:28;24;23;
78408;PMS5003;67697;50.750;-3.270;2023-02-21T05:04:53;26;19;
78408;PMS5003;67697;50.750;-3.270;2023-02-21T05:07:19;25;18;
78408;PMS5003;67697;50.750;-3.270;2023-02-21T05:09:44;18;16;
78408;PMS5003;67697;50.750;-3.270;2023-02-21T05:12:09;20;18;
78408;PMS5003;67697;50.750;-3.270;2023-02-21T05:14:35;15;15;
78408;PMS5003;67697;50.750;-3.270;2023-02-21T05:17:00;20;15;
78408;PMS5003;67697;50.750;-3.270;2023-02-21T05:19:25;17;17;
78408;PMS5003;67697;50.750;-3.270;2023-02-21T05:21:51;15;14;
78408;PMS5003;67697;50.750;-3.270;2023-02-21T05:24:16;14;14;
78408;PMS5003;67697;50.750;-3.270;2023-02-21T05:26:41;18;17;
78408;PMS5003;67697;50.750;-3.270;2023-02-21T05:29:07;13;13;
78408;PMS5003;67697;50.750;-3.270;2023-02-21T05:31:32;17;15;
78408;PMS5003;67697;50.750;-3.270;2023-02-21T05:33:58;17;17;
78408;PMS5003;67697;50.750;-3.270;2023-02-21T05:36:24;19;15;
78408;PMS5003;67697;50.750;-3.270;2023-02-21T05:38:50;10;10;
78408;PMS5003;67697;50.750;-3.270;2023-02-21T05:41:15;12;12;
78408;PMS5003;67697;50.750;-3.270;2023-02-21T05:43:42;15;13;
78408;PMS5003;67697;50.750;-3.270;2023-02-21T05:46:06;10;9;
78408;PMS5003;67697;50.750;-3.270;2023-02-21T05:48:32;11;11;
78408;PMS5003;67697;50.750;-3.270;2023-02-21T05:50:57;17;13;
78408;PMS5003;67697;50.750;-3.270;2023-02-21T05:53:22;13;13;
78408;PMS5003;67697;50.750;-3.270;2023-02-21T05:55:48;9;7;
78408;PMS5003;67697;50.750;-3.270;2023-02-21T05:58:13;12;12;
78408;PMS5003;67697;50.750;-3.270;2023-02-21T06:00:38;8;8;
78408;PMS5003;67697;50.750;-3.270;2023-02-21T06:03:04;15;8;
78408;PMS5003;67697;50.750;-3.270;2023-02-21T06:05:29;11;9;
78408;PMS5003;67697;50.750;-3.270;2023-02-21T06:07:55;14;9;
78408;PMS5003;67697;50.750;-3.270;2023-02-21T06:10:21;8;7;
78408;PMS5003;67697;50.750;-3.270;2023-02-21T06:12:47;13;9;
78408;PMS5003;67697;50.750;-3.270;2023-02-21T06:15:12;8;8;
78408;PMS5003;67697;50.750;-3.270;2023-02-21T06:17:39;4;4;
78408;PMS5003;67697;50.750;-3.270;2023-02-21T06:20:04;11;11;
78408;PMS5003;67697;50.750;-3.270;2023-02-21T06:22:29;7;6;
78408;PMS5003;67697;50.750;-3.270;2023-02-21T06:24:55;8;7;
78408;PMS5003;67697;50.750;-3.270;2023-02-21T06:27:21;11;8;
78408;PMS5003;67697;50.750;-3.270;2023-02-21T06:29:47;8;7;
78408;PMS5003;67697;50.750;-3.270;2023-02-21T06:32:12;6;4;
78408;PMS5003;67697;50.750;-3.270;2023-02-21T06:34:38;8;8;
78408;PMS5003;67697;50.750;-3.270;2023-02-21T06:37:03;6;6;
78408;PMS5003;67697;50.750;-3.270;2023-02-21T06:39:29;8;7;
78408;PMS5003;67697;50.750;-3.270;2023-02-21T06:41:55;9;7;
78408;PMS5003;67697;50.750;-3.270;2023-02-21T06:44:21;4;4;
78408;PMS5003;67697;50.750;-3.270;2023-02-21T06:46:47;3;2;
78408;PMS5003;67697;50.750;-3.270;2023-02-21T06:49:12;6;3;
78408;PMS5003;67697;50.750;-3.270;2023-02-21T06:51:39;4;4;
78408;PMS5003;67697;50.750;-3.270;2023-02-21T06:54:04;6;4;
78408;PMS5003;67697;50.750;-3.270;2023-02-21T06:56:29;3;3;
78408;PMS5003;67697;50.750;-3.270;2023-02-21T06:58:55;6;4;
78408;PMS5003;67697;50.750;-3.270;2023-02-21T07:01:21;3;3;
78408;PMS5003;67697;50.750;-3.270;2023-02-21T07:03:47;4;4;
78408;PMS5003;67697;50.750;-3.270;2023-02-21T07:06:12;3;3;
78408;PMS5003;67697;50.750;-3.270;2023-02-21T07:08:38;2;2;
78408;PMS5003;67697;50.750;-3.270;2023-02-21T07:11:04;6;5;
78408;PMS5003;67697;50.750;-3.270;2023-02-21T07:13:30;3;3;
78408;PMS5003;67697;50.750;-3.270;2023-02-21T07:15:55;3;3;
78408;PMS5003;67697;50.750;-3.270;2023-02-21T07:18:21;5;5;
78408;PMS5003;67697;50.750;-3.270;2023-02-21T07:20:47;5;3;
78408;PMS5003;67697;50.750;-3.270;2023-02-21T07:23:13;7;5;
78408;PMS5003;67697;50.750;-3.270;2023-02-21T07:25:38;8;6;
78408;PMS5003;67697;50.750;-3.270;2023-02-21T07:28:04;10;6;
78408;PMS5003;67697;50.750;-3.270;2023-02-21T07:30:30;6;6;
78408;PMS5003;67697;50.750;-3.270;2023-02-21T07:32:55;6;6;
78408;PMS5003;67697;50.750;-3.270;2023-02-21T07:35:21;6;5;
78408;PMS5003;67697;50.750;-3.270;2023-02-21T07:37:46;8;7;
78408;PMS5003;67697;50.750;-3.270;2023-02-21T07:40:12;7;7;
78408;PMS5003;67697;50.750;-3.270;2023-02-21T07:42:39;6;6;
78408;PMS5003;67697;50.750;-3.270;2023-02-21T07:45:03;4;4;
78408;PMS5003;67697;50.750;-3.270;2023-02-21T07:47:29;4;4;
78408;PMS5003;67697;50.750;-3.270;2023-02-21T07:49:55;7;7;
78408;PMS5003;67697;50.750;-3.270;2023-02-21T07:52:20;4;3;
78408;PMS5003;67697;50.750;-3.270;2023-02-21T07:54:46;6;3;
78408;PMS5003;67697;50.750;-3.270;2023-02-21T07:57:12;5;5;
78408;PMS5003;67697;50.750;-3.270;2023-02-21T07:59:37;2;2;
78408;PMS5003;67697;50.750;-3.270;2023-02-21T08:02:03;2;2;
78408;PMS5003;67697;50.750;-3.270;2023-02-21T08:04:29;3;3;
78408;PMS5003;67697;50.750;-3.270;2023-02-21T08:06:57;2;2;
78408;PMS5003;67697;50.750;-3.270;2023-02-21T08:09:20;6;6;
78408;PMS5003;67697;50.750;-3.270;2023-02-21T08:11:46;6;3;
78408;PMS5003;67697;50.750;-3.270;2023-02-21T08:14:12;3;3;
78408;PMS5003;67697;50.750;-3.270;2023-02-21T08:16:37;7;6;
78408;PMS5003;67697;50.750;-3.270;2023-02-21T08:19:03;6;4;
78408;PMS5003;67697;50.750;-3.270;2023-02-21T08:21:29;7;7;
78408;PMS5003;67697;50.750;-3.270;2023-02-21T08:23:55;4;4;
78408;PMS5003;67697;50.750;-3.270;2023-02-21T08:26:20;3;3;
78408;PMS5003;67697;50.750;-3.270;2023-02-21T08:28:46;4;4;
78408;PMS5003;67697;50.750;-3.270;2023-02-21T08:31:12;5;5;
78408;PMS5003;67697;50.750;-3.270;2023-02-21T08:33:38;4;3;
78408;PMS5003;67697;50.750;-3.270;2023-02-21T08:36:03;2;2;
78408;PMS5003;67697;50.750;-3.270;2023-02-21T08:38:29;1;1;
78408;PMS5003;67697;50.750;-3.270;2023-02-21T08:40:55;1;1;
78408;PMS5003;67697;50.750;-3.270;2023-02-21T08:43:20;1;1;
78408;PMS5003;67697;50.750;-3.270;2023-02-21T08:45:46;1;1;
78408;PMS5003;67697;50.750;-3.270;2023-02-21T08:48:12;3;3;
78408;PMS5003;67697;50.750;-3.270;2023-02-21T08:50:38;2;2;
78408;PMS5003;67697;50.750;-3.270;2023-02-21T08:53:03;2;2;
78408;PMS5003;67697;50.750;-3.270;2023-02-21T08:55:29;2;1;
78408;PMS5003;67697;50.750;-3.270;2023-02-21T08:57:56;1;1;
78408;PMS5003;67697;50.750;-3.270;2023-02-21T09:00:21;3;3;
78408;PMS5003;67697;50.750;-3.270;2023-02-21T09:02:47;3;2;
78408;PMS5003;67697;50.750;-3.270;2023-02-21T09:05:13;2;2;
78408;PMS5003;67697;50.750;-3.270;2023-02-21T09:07:38;2;2;
78408;PMS5003;67697;50.750;-3.270;2023-02-21T09:10:04;2;1;
78408;PMS5003;67697;50.750;-3.270;2023-02-21T09:12:29;3;1;
78408;PMS5003;67697;50.750;-3.270;2023-02-21T09:14:55;2;2;
78408;PMS5003;67697;50.750;-3.270;2023-02-21T09:17:21;1;1;
78408;PMS5003;67697;50.750;-3.270;2023-02-21T09:19:46;1;1;
78408;PMS5003;67697;50.750;-3.270;2023-02-21T09:22:12;2;2;
78408;PMS5003;67697;50.750;-3.270;2023-02-21T09:24:38;3;3;
78408;PMS5003;67697;50.750;-3.270;2023-02-21T09:27:04;2;2;
78408;PMS5003;67697;50.750;-3.270;2023-02-21T09:29:30;2;2;
78408;PMS5003;67697;50.750;-3.270;2023-02-21T09:31:55;3;3;
78408;PMS5003;67697;50.750;-3.270;2023-02-21T09:34:21;1;1;
78408;PMS5003;67697;50.750;-3.270;2023-02-21T09:36:46;2;2;
78408;PMS5003;67697;50.750;-3.270;2023-02-21T09:39:12;2;2;
78408;PMS5003;67697;50.750;-3.270;2023-02-21T09:41:38;1;1;
78408;PMS5003;67697;50.750;-3.270;2023-02-21T09:44:04;2;2;
78408;PMS5003;67697;50.750;-3.270;2023-02-21T09:46:31;2;2;
78408;PMS5003;67697;50.750;-3.270;2023-02-21T09:48:55;2;1;
78408;PMS5003;67697;50.750;-3.270;2023-02-21T09:51:21;2;2;
78408;PMS5003;67697;50.750;-3.270;2023-02-21T09:53:47;2;2;
78408;PMS5003;67697;50.750;-3.270;2023-02-21T09:56:17;1;1;
78408;PMS5003;67697;50.750;-3.270;2023-02-21T09:58:41;1;1;
78408;PMS5003;67697;50.750;-3.270;2023-02-21T10:01:05;0;0;
78408;PMS5003;67697;50.750;-3.270;2023-02-21T10:03:33;3;2;
78408;PMS5003;67697;50.750;-3.270;2023-02-21T10:05:56;1;1;
78408;PMS5003;67697;50.750;-3.270;2023-02-21T10:08:22;0;0;
78408;PMS5003;67697;50.750;-3.270;2023-02-21T10:10:47;1;1;
78408;PMS5003;67697;50.750;-3.270;2023-02-21T10:13:18;1;1;
78408;PMS5003;67697;50.750;-3.270;2023-02-21T10:15:40;1;1;
78408;PMS5003;67697;50.750;-3.270;2023-02-21T10:18:05;2;2;
78408;PMS5003;67697;50.750;-3.270;2023-02-21T10:20:32;1;1;
78408;PMS5003;67697;50.750;-3.270;2023-02-21T10:22:55;1;0;
78408;PMS5003;67697;50.750;-3.270;2023-02-21T10:25:22;0;0;
78408;PMS5003;67697;50.750;-3.270;2023-02-21T10:27:47;1;1;
78408;PMS5003;67697;50.750;-3.270;2023-02-21T10:30:16;0;0;
78408;PMS5003;67697;50.750;-3.270;2023-02-21T10:32:38;3;1;
78408;PMS5003;67697;50.750;-3.270;2023-02-21T10:35:04;0;0;
78408;PMS5003;67697;50.750;-3.270;2023-02-21T10:37:32;1;1;
78408;PMS5003;67697;50.750;-3.270;2023-02-21T10:39:57;0;0;
78408;PMS5003;67697;50.750;-3.270;2023-02-21T10:42:24;0;0;
78408;PMS5003;67697;50.750;-3.270;2023-02-21T10:44:47;0;0;
78408;PMS5003;67697;50.750;-3.270;2023-02-21T10:47:14;0;0;
78408;PMS5003;67697;50.750;-3.270;2023-02-21T10:49:39;0;0;
78408;PMS5003;67697;50.750;-3.270;2023-02-21T10:52:05;1;1;
78408;PMS5003;67697;50.750;-3.270;2023-02-21T10:54:29;0;0;
78408;PMS5003;67697;50.750;-3.270;2023-02-21T10:56:55;1;1;
78408;PMS5003;67697;50.750;-3.270;2023-02-21T10:59:21;0;0;
78408;PMS5003;67697;50.750;-3.270;2023-02-21T11:01:46;0;0;
78408;PMS5003;67697;50.750;-3.270;2023-02-21T11:06:38;1;1;
78408;PMS5003;67697;50.750;-3.270;2023-02-21T11:11:31;0;0;
78408;PMS5003;67697;50.750;-3.270;2023-02-21T11:16:20;1;1;
78408;PMS5003;67697;50.750;-3.270;2023-02-21T11:18:46;0;0;
78408;PMS5003;67697;50.750;-3.270;2023-02-21T11:21:12;0;0;
78408;PMS5003;67697;50.750;-3.270;2023-02-21T11:23:37;1;1;
78408;PMS5003;67697;50.750;-3.270;2023-02-21T11:26:05;0;0;
78408;PMS5003;67697;50.750;-3.270;2023-02-21T11:28:29;0;0;
78408;PMS5003;67697;50.750;-3.270;2023-02-21T11:31:05;0;0;
78408;PMS5003;67697;50.750;-3.270;2023-02-21T11:33:20;0;0;
78408;PMS5003;67697;50.750;-3.270;2023-02-21T11:35:46;0;0;
78408;PMS5003;67697;50.750;-3.270;2023-02-21T11:40:40;1;1;
78408;PMS5003;67697;50.750;-3.270;2023-02-21T11:43:10;1;1;
78408;PMS5003;67697;50.750;-3.270;2023-02-21T11:45:29;1;1;
78408;PMS5003;67697;50.750;-3.270;2023-02-21T11:47:56;2;2;
78408;PMS5003;67697;50.750;-3.270;2023-02-21T11:50:22;1;1;
78408;PMS5003;67697;50.750;-3.270;2023-02-21T11:52:48;1;1;
78408;PMS5003;67697;50.750;-3.270;2023-02-21T11:55:13;2;2;
78408;PMS5003;67697;50.750;-3.270;2023-02-21T11:57:39;2;2;
78408;PMS5003;67697;50.750;-3.270;2023-02-21T12:00:12;2;2;
78408;PMS5003;67697;50.750;-3.270;2023-02-21T12:02:45;1;1;
78408;PMS5003;67697;50.750;-3.270;2023-02-21T12:04:58;3;2;
78408;PMS5003;67697;50.750;-3.270;2023-02-21T12:07:22;2;2;
78408;PMS5003;67697;50.750;-3.270;2023-02-21T12:09:48;2;2;
78408;PMS5003;67697;50.750;-3.270;2023-02-21T12:12:16;3;3;
78408;PMS5003;67697;50.750;-3.270;2023-02-21T12:14:40;2;2;
78408;PMS5003;67697;50.750;-3.270;2023-02-21T12:17:07;2;2;
78408;PMS5003;67697;50.750;-3.270;2023-02-21T12:19:35;3;3;
78408;PMS5003;67697;50.750;-3.270;2023-02-21T12:21:59;3;3;
78408;PMS5003;67697;50.750;-3.270;2023-02-21T12:24:24;9;8;
78408;PMS5003;67697;50.750;-3.270;2023-02-21T12:26:48;19;16;
78408;PMS5003;67697;50.750;-3.270;2023-02-21T12:29:15;7;6;
78408;PMS5003;67697;50.750;-3.270;2023-02-21T12:31:42;4;4;
78408;PMS5003;67697;50.750;-3.270;2023-02-21T12:34:07;4;4;
78408;PMS5003;67697;50.750;-3.270;2023-02-21T12:36:37;10;9;
78408;PMS5003;67697;50.750;-3.270;2023-02-21T12:38:59;14;10;
78408;PMS5003;67697;50.750;-3.270;2023-02-21T12:41:24;20;16;
78408;PMS5003;67697;50.750;-3.270;2023-02-21T12:43:49;10;9;
78408;PMS5003;67697;50.750;-3.270;2023-02-21T12:46:11;10;10;
78408;PMS5003;67697;50.750;-3.270;2023-02-21T12:48:36;15;10;
78408;PMS5003;67697;50.750;-3.270;2023-02-21T12:51:02;7;6;
78408;PMS5003;67697;50.750;-3.270;2023-02-21T12:53:28;10;10;
78408;PMS5003;67697;50.750;-3.270;2023-02-21T12:55:54;6;6;
78408;PMS5003;67697;50.750;-3.270;2023-02-21T12:58:20;10;7;
78408;PMS5003;67697;50.750;-3.270;2023-02-21T13:00:45;9;8;
78408;PMS5003;67697;50.750;-3.270;2023-02-21T13:03:11;12;12;
78408;PMS5003;67697;50.750;-3.270;2023-02-21T13:05:36;12;10;
78408;PMS5003;67697;50.750;-3.270;2023-02-21T13:08:00;9;9;
78408;PMS5003;67697;50.750;-3.270;2023-02-21T13:10:27;11;9;
78408;PMS5003;67697;50.750;-3.270;2023-02-21T13:12:54;12;12;
78408;PMS5003;67697;50.750;-3.270;2023-02-21T13:15:18;27;25;
78408;PMS5003;67697;50.750;-3.270;2023-02-21T13:17:42;15;14;
78408;PMS5003;67697;50.750;-3.270;2023-02-21T13:20:08;18;17;
78408;PMS5003;67697;50.750;-3.270;2023-02-21T13:22:38;15;13;
78408;PMS5003;67697;50.750;-3.270;2023-02-21T13:25:02;22;18;
78408;PMS5003;67697;50.750;-3.270;2023-02-21T13:29:50;18;15;
78408;PMS5003;67697;50.750;-3.270;2023-02-21T13:32:15;7;7;
78408;PMS5003;67697;50.750;-3.270;2023-02-21T13:34:41;15;13;
78408;PMS5003;67697;50.750;-3.270;2023-02-21T13:37:07;13;12;
78408;PMS5003;67697;50.750;-3.270;2023-02-21T13:39:32;10;9;
78408;PMS5003;67697;50.750;-3.270;2023-02-21T13:42:01;20;18;
78408;PMS5003;67697;50.750;-3.270;2023-02-21T13:44:23;27;21;
78408;PMS5003;67697;50.750;-3.270;2023-02-21T13:51:45;23;23;
78408;PMS5003;67697;50.750;-3.270;2023-02-21T13:54:07;24;23;
78408;PMS5003;67697;50.750;-3.270;2023-02-21T13:58:55;35;35;
78408;PMS5003;67697;50.750;-3.270;2023-02-21T14:01:22;20;16;
78408;PMS5003;67697;50.750;-3.270;2023-02-21T14:03:46;24;22;
78408;PMS5003;67697;50.750;-3.270;2023-02-21T14:08:38;32;32;
78408;PMS5003;67697;50.750;-3.270;2023-02-21T14:11:15;44;40;
78408;PMS5003;67697;50.750;-3.270;2023-02-21T14:13:30;26;25;
78408;PMS5003;67697;50.750;-3.270;2023-02-21T14:15:56;26;21;
78408;PMS5003;67697;50.750;-3.270;2023-02-21T14:18:20;32;30;
78408;PMS5003;67697;50.750;-3.270;2023-02-21T14:20:44;27;25;
78408;PMS5003;67697;50.750;-3.270;2023-02-21T14:23:13;38;36;
78408;PMS5003;67697;50.750;-3.270;2023-02-21T14:25:35;36;34;
78408;PMS5003;67697;50.750;-3.270;2023-02-21T14:28:00;31;26;
78408;PMS5003;67697;50.750;-3.270;2023-02-21T14:30:27;32;32;
78408;PMS5003;67697;50.750;-3.270;2023-02-21T14:32:51;40;36;
78408;PMS5003;67697;50.750;-3.270;2023-02-21T14:35:21;39;34;
78408;PMS5003;67697;50.750;-3.270;2023-02-21T14:37:43;39;37;
78408;PMS5003;67697;50.750;-3.270;2023-02-21T14:40:15;45;44;
78408;PMS5003;67697;50.750;-3.270;2023-02-21T14:42:36;44;43;
78408;PMS5003;67697;50.750;-3.270;2023-02-21T14:45:06;52;47;
78408;PMS5003;67697;50.750;-3.270;2023-02-21T14:47:30;66;59;
78408;PMS5003;67697;50.750;-3.270;2023-02-21T14:49:53;49;44;
78408;PMS5003;67697;50.750;-3.270;2023-02-21T14:52:27;48;45;
78408;PMS5003;67697;50.750;-3.270;2023-02-21T14:59:36;49;48;
78408;PMS5003;67697;50.750;-3.270;2023-02-21T15:02:00;42;40;
78408;PMS5003;67697;50.750;-3.270;2023-02-21T15:04:25;47;42;
78408;PMS5003;67697;50.750;-3.270;2023-02-21T15:06:54;35;32;
78408;PMS5003;67697;50.750;-3.270;2023-02-21T15:09:17;43;41;
78408;PMS5003;67697;50.750;-3.270;2023-02-21T15:11:38;36;35;
78408;PMS5003;67697;50.750;-3.270;2023-02-21T15:14:11;61;60;
78408;PMS5003;67697;50.750;-3.270;2023-02-21T15:16:30;72;67;
78408;PMS5003;67697;50.750;-3.270;2023-02-21T15:18:56;74;67;
78408;PMS5003;67697;50.750;-3.270;2023-02-21T15:21:21;55;55;
78408;PMS5003;67697;50.750;-3.270;2023-02-21T15:23:47;63;55;
78408;PMS5003;67697;50.750;-3.270;2023-02-21T15:26:16;42;36;
78408;PMS5003;67697;50.750;-3.270;2023-02-21T15:28:37;48;46;
78408;PMS5003;67697;50.750;-3.270;2023-02-21T15:31:03;36;35;
78408;PMS5003;67697;50.750;-3.270;2023-02-21T15:33:29;62;59;
78408;PMS5003;67697;50.750;-3.270;2023-02-21T15:35:53;38;38;
78408;PMS5003;67697;50.750;-3.270;2023-02-21T15:38:19;69;61;
78408;PMS5003;67697;50.750;-3.270;2023-02-21T15:40:43;53;46;
78408;PMS5003;67697;50.750;-3.270;2023-02-21T15:43:10;55;50;
78408;PMS5003;67697;50.750;-3.270;2023-02-21T15:45:35;32;29;
78408;PMS5003;67697;50.750;-3.270;2023-02-21T15:48:00;18;18;
78408;PMS5003;67697;50.750;-3.270;2023-02-21T15:50:29;16;16;
78408;PMS5003;67697;50.750;-3.270;2023-02-21T15:52:51;21;21;
78408;PMS5003;67697;50.750;-3.270;2023-02-21T15:57:41;57;52;
78408;PMS5003;67697;50.750;-3.270;2023-02-21T16:00:17;48;44;
78408;PMS5003;67697;50.750;-3.270;2023-02-21T16:02:33;52;51;
78408;PMS5003;67697;50.750;-3.270;2023-02-21T16:04:58;56;50;
78408;PMS5003;67697;50.750;-3.270;2023-02-21T16:07:26;58;53;
78408;PMS5003;67697;50.750;-3.270;2023-02-21T16:09:49;39;36;
78408;PMS5003;67697;50.750;-3.270;2023-02-21T16:14:41;23;23;
78408;PMS5003;67697;50.750;-3.270;2023-02-21T16:17:12;36;35;
78408;PMS5003;67697;50.750;-3.270;2023-02-21T16:19:31;33;30;
78408;PMS5003;67697;50.750;-3.270;2023-02-21T16:24:26;48;42;
78408;PMS5003;67697;50.750;-3.270;2023-02-21T16:29:13;39;37;
78408;PMS5003;67697;50.750;-3.270;2023-02-21T16:31:39;43;42;
78408;PMS5003;67697;50.750;-3.270;2023-02-21T16:34:04;60;55;
78408;PMS5003;67697;50.750;-3.270;2023-02-21T16:36:30;52;48;
78408;PMS5003;67697;50.750;-3.270;2023-02-21T16:38:56;60;59;
78408;PMS5003;67697;50.750;-3.270;2023-02-21T16:41:21;47;46;
78408;PMS5003;67697;50.750;-3.270;2023-02-21T16:43:46;42;38;
78408;PMS5003;67697;50.750;-3.270;2023-02-21T16:46:11;49;47;
78408;PMS5003;67697;50.750;-3.270;2023-02-21T16:48:37;32;29;
78408;PMS5003;67697;50.750;-3.270;2023-02-21T16:51:04;45;44;